sensor_id;sensor_type;location;lat;lon;timestamp;P1;durP1;ratioP1;P2;durP2;ratioP2
9880;SDS011;4979;51.014;6.678;2024-01-30T00:01:54;15.90;;;10.80;;
9880;SDS011;4979;51.014;6.678;2024-01-30T00:04:20;15.95;;;10.13;;
9880;SDS011;4979;51.014;6.678;2024-01-30T00:06:45;18.02;;;13.55;;
9880;SDS011;4979;51.014;6.678;2024-01-30T00:09:11;16.08;;;10.95;;
9880;SDS011;4979;51.014;6.678;2024-01-30T00:11:36;18.08;;;10.80;;
9880;SDS011;4979;51.014;6.678;2024-01-30T00:14:03;19.95;;;11.73;;
9880;SDS011;4979;51.014;6.678;2024-01-30T00:16:29;18.05;;;10.30;;
9880;SDS011;4979;51.014;6.678;2024-01-30T00:18:55;22.95;;;12.40;;
9880;SDS011;4979;51.014;6.678;2024-01-30T00:21:20;18.20;;;10.05;;
9880;SDS011;4979;51.014;6.678;2024-01-30T00:23:46;18.00;;;11.18;;
9880;SDS011;4979;51.014;6.678;2024-01-30T00:26:12;21.10;;;10.82;;
9880;SDS011;4979;51.014;6.678;2024-01-30T00:28:39;14.25;;;9.82;;
9880;SDS011;4979;51.014;6.678;2024-01-30T00:31:05;14.15;;;9.48;;
9880;SDS011;4979;51.014;6.678;2024-01-30T00:33:31;17.83;;;10.27;;
9880;SDS011;4979;51.014;6.678;2024-01-30T00:35:56;21.27;;;12.52;;
9880;SDS011;4979;51.014;6.678;2024-01-30T00:38:22;14.63;;;9.85;;
9880;SDS011;4979;51.014;6.678;2024-01-30T00:40:48;21.95;;;13.82;;
9880;SDS011;4979;51.014;6.678;2024-01-30T00:43:13;19.50;;;12.25;;
9880;SDS011;4979;51.014;6.678;2024-01-30T00:45:40;21.02;;;12.85;;
9880;SDS011;4979;51.014;6.678;2024-01-30T00:48:06;25.38;;;13.35;;
9880;SDS011;4979;51.014;6.678;2024-01-30T00:50:32;16.80;;;10.73;;
9880;SDS011;4979;51.014;6.678;2024-01-30T00:52:57;17.60;;;10.90;;
9880;SDS011;4979;51.014;6.678;2024-01-30T00:55:23;12.90;;;9.98;;
9880;SDS011;4979;51.014;6.678;2024-01-30T00:57:48;20.52;;;11.48;;
9880;SDS011;4979;51.014;6.678;2024-01-30T01:00:14;19.88;;;11.80;;
9880;SDS011;4979;51.014;6.678;2024-01-30T01:02:42;15.73;;;10.35;;
9880;SDS011;4979;51.014;6.678;2024-01-30T01:05:08;22.15;;;13.25;;
9880;SDS011;4979;51.014;6.678;2024-01-30T01:07:34;24.73;;;13.63;;
9880;SDS011;4979;51.014;6.678;2024-01-30T01:09:59;18.50;;;11.38;;
9880;SDS011;4979;51.014;6.678;2024-01-30T01:12:25;21.83;;;12.25;;
9880;SDS011;4979;51.014;6.678;2024-01-30T01:14:51;24.67;;;12.35;;
9880;SDS011;4979;51.014;6.678;2024-01-30T01:17:16;18.55;;;12.45;;
9880;SDS011;4979;51.014;6.678;2024-01-30T01:19:43;19.65;;;12.23;;
9880;SDS011;4979;51.014;6.678;2024-01-30T01:22:09;27.30;;;13.90;;
9880;SDS011;4979;51.014;6.678;2024-01-30T01:24:35;22.90;;;11.18;;
9880;SDS011;4979;51.014;6.678;2024-01-30T01:27:01;64.57;;;24.67;;
9880;SDS011;4979;51.014;6.678;2024-01-30T01:29:26;24.08;;;12.63;;
9880;SDS011;4979;51.014;6.678;2024-01-30T01:31:56;36.55;;;15.75;;
9880;SDS011;4979;51.014;6.678;2024-01-30T01:34:22;29.27;;;14.50;;
9880;SDS011;4979;51.014;6.678;2024-01-30T01:36:49;36.50;;;16.13;;
9880;SDS011;4979;51.014;6.678;2024-01-30T01:39:14;37.33;;;18.38;;
9880;SDS011;4979;51.014;6.678;2024-01-30T01:41:40;28.85;;;14.60;;
9880;SDS011;4979;51.014;6.678;2024-01-30T01:44:07;29.80;;;15.48;;
9880;SDS011;4979;51.014;6.678;2024-01-30T01:46:33;20.98;;;13.13;;
9880;SDS011;4979;51.014;6.678;2024-01-30T01:49:00;21.80;;;12.13;;
9880;SDS011;4979;51.014;6.678;2024-01-30T01:51:28;20.48;;;12.80;;
9880;SDS011;4979;51.014;6.678;2024-01-30T01:53:56;20.00;;;12.00;;
9880;SDS011;4979;51.014;6.678;2024-01-30T01:56:23;31.15;;;18.77;;
9880;SDS011;4979;51.014;6.678;2024-01-30T01:58:49;27.98;;;14.15;;
9880;SDS011;4979;51.014;6.678;2024-01-30T02:01:16;21.50;;;13.80;;
9880;SDS011;4979;51.014;6.678;2024-01-30T02:03:45;16.90;;;12.68;;
9880;SDS011;4979;51.014;6.678;2024-01-30T02:06:12;18.60;;;11.95;;
9880;SDS011;4979;51.014;6.678;2024-01-30T02:08:41;18.92;;;11.95;;
9880;SDS011;4979;51.014;6.678;2024-01-30T02:11:07;23.25;;;12.45;;
9880;SDS011;4979;51.014;6.678;2024-01-30T02:13:33;21.90;;;11.77;;
9880;SDS011;4979;51.014;6.678;2024-01-30T02:15:59;16.52;;;12.35;;
9880;SDS011;4979;51.014;6.678;2024-01-30T02:18:26;20.17;;;12.38;;
9880;SDS011;4979;51.014;6.678;2024-01-30T02:20:52;17.90;;;12.23;;
9880;SDS011;4979;51.014;6.678;2024-01-30T02:23:19;15.45;;;11.52;;
9880;SDS011;4979;51.014;6.678;2024-01-30T02:25:45;17.85;;;12.15;;
9880;SDS011;4979;51.014;6.678;2024-01-30T02:28:11;16.15;;;12.15;;
9880;SDS011;4979;51.014;6.678;2024-01-30T02:30:37;20.10;;;12.40;;
9880;SDS011;4979;51.014;6.678;2024-01-30T02:33:09;17.90;;;11.93;;
9880;SDS011;4979;51.014;6.678;2024-01-30T02:35:34;18.17;;;12.35;;
9880;SDS011;4979;51.014;6.678;2024-01-30T02:38:00;17.83;;;11.82;;
9880;SDS011;4979;51.014;6.678;2024-01-30T02:40:26;17.60;;;11.63;;
9880;SDS011;4979;51.014;6.678;2024-01-30T02:42:52;16.52;;;11.70;;
9880;SDS011;4979;51.014;6.678;2024-01-30T02:45:17;18.92;;;12.13;;
9880;SDS011;4979;51.014;6.678;2024-01-30T02:47:43;15.45;;;11.40;;
9880;SDS011;4979;51.014;6.678;2024-01-30T02:50:09;17.17;;;12.30;;
9880;SDS011;4979;51.014;6.678;2024-01-30T02:52:34;20.08;;;12.25;;
9880;SDS011;4979;51.014;6.678;2024-01-30T02:55:00;21.38;;;13.18;;
9880;SDS011;4979;51.014;6.678;2024-01-30T02:57:27;16.58;;;11.77;;
9880;SDS011;4979;51.014;6.678;2024-01-30T02:59:53;18.27;;;12.18;;
9880;SDS011;4979;51.014;6.678;2024-01-30T03:02:19;16.23;;;11.40;;
9880;SDS011;4979;51.014;6.678;2024-01-30T03:04:45;19.65;;;12.05;;
9880;SDS011;4979;51.014;6.678;2024-01-30T03:07:10;16.13;;;11.63;;
9880;SDS011;4979;51.014;6.678;2024-01-30T03:09:36;17.95;;;11.95;;
9880;SDS011;4979;51.014;6.678;2024-01-30T03:12:02;19.08;;;12.23;;
9880;SDS011;4979;51.014;6.678;2024-01-30T03:14:30;15.93;;;11.35;;
9880;SDS011;4979;51.014;6.678;2024-01-30T03:16:56;16.15;;;12.13;;
9880;SDS011;4979;51.014;6.678;2024-01-30T03:19:21;17.83;;;12.02;;
9880;SDS011;4979;51.014;6.678;2024-01-30T03:21:47;16.58;;;11.98;;
9880;SDS011;4979;51.014;6.678;2024-01-30T03:24:12;14.88;;;11.50;;
9880;SDS011;4979;51.014;6.678;2024-01-30T03:26:38;19.30;;;12.50;;
9880;SDS011;4979;51.014;6.678;2024-01-30T03:29:03;17.90;;;11.43;;
9880;SDS011;4979;51.014;6.678;2024-01-30T03:31:29;19.38;;;11.48;;
9880;SDS011;4979;51.014;6.678;2024-01-30T03:33:54;22.67;;;12.48;;
9880;SDS011;4979;51.014;6.678;2024-01-30T03:36:20;24.60;;;11.95;;
9880;SDS011;4979;51.014;6.678;2024-01-30T03:38:45;16.10;;;11.60;;
9880;SDS011;4979;51.014;6.678;2024-01-30T03:41:11;15.80;;;10.57;;
9880;SDS011;4979;51.014;6.678;2024-01-30T03:43:36;16.52;;;11.30;;
9880;SDS011;4979;51.014;6.678;2024-01-30T03:46:02;17.10;;;11.40;;
9880;SDS011;4979;51.014;6.678;2024-01-30T03:48:28;18.08;;;10.95;;
9880;SDS011;4979;51.014;6.678;2024-01-30T03:50:54;15.25;;;9.77;;
9880;SDS011;4979;51.014;6.678;2024-01-30T03:53:20;14.30;;;9.68;;
9880;SDS011;4979;51.014;6.678;2024-01-30T03:55:45;17.05;;;10.45;;
9880;SDS011;4979;51.014;6.678;2024-01-30T03:58:11;15.07;;;10.90;;
9880;SDS011;4979;51.014;6.678;2024-01-30T04:00:36;16.80;;;11.40;;
9880;SDS011;4979;51.014;6.678;2024-01-30T04:03:02;21.02;;;10.98;;
9880;SDS011;4979;51.014;6.678;2024-01-30T04:05:28;17.05;;;11.05;;
9880;SDS011;4979;51.014;6.678;2024-01-30T04:07:54;15.77;;;11.13;;
9880;SDS011;4979;51.014;6.678;2024-01-30T04:10:19;15.07;;;11.05;;
9880;SDS011;4979;51.014;6.678;2024-01-30T04:12:45;15.95;;;11.70;;
9880;SDS011;4979;51.014;6.678;2024-01-30T04:15:10;15.63;;;10.90;;
9880;SDS011;4979;51.014;6.678;2024-01-30T04:17:36;19.83;;;11.82;;
9880;SDS011;4979;51.014;6.678;2024-01-30T04:20:01;17.13;;;10.60;;
9880;SDS011;4979;51.014;6.678;2024-01-30T04:22:27;16.38;;;11.20;;
9880;SDS011;4979;51.014;6.678;2024-01-30T04:24:53;20.02;;;10.75;;
9880;SDS011;4979;51.014;6.678;2024-01-30T04:27:18;15.18;;;11.00;;
9880;SDS011;4979;51.014;6.678;2024-01-30T04:29:44;16.08;;;10.23;;
9880;SDS011;4979;51.014;6.678;2024-01-30T04:32:09;16.88;;;10.95;;
9880;SDS011;4979;51.014;6.678;2024-01-30T04:34:36;14.70;;;11.13;;
9880;SDS011;4979;51.014;6.678;2024-01-30T04:37:02;14.57;;;10.48;;
9880;SDS011;4979;51.014;6.678;2024-01-30T04:39:28;15.93;;;10.60;;
9880;SDS011;4979;51.014;6.678;2024-01-30T04:41:53;16.58;;;10.68;;
9880;SDS011;4979;51.014;6.678;2024-01-30T04:44:19;20.60;;;10.73;;
9880;SDS011;4979;51.014;6.678;2024-01-30T04:46:44;20.50;;;11.18;;
9880;SDS011;4979;51.014;6.678;2024-01-30T04:49:10;16.55;;;10.90;;
9880;SDS011;4979;51.014;6.678;2024-01-30T04:51:36;15.82;;;9.95;;
9880;SDS011;4979;51.014;6.678;2024-01-30T04:54:01;19.60;;;10.65;;
9880;SDS011;4979;51.014;6.678;2024-01-30T04:56:27;15.85;;;9.73;;
9880;SDS011;4979;51.014;6.678;2024-01-30T04:58:53;16.58;;;9.95;;
9880;SDS011;4979;51.014;6.678;2024-01-30T05:01:18;14.73;;;9.73;;
9880;SDS011;4979;51.014;6.678;2024-01-30T05:03:44;15.20;;;9.40;;
9880;SDS011;4979;51.014;6.678;2024-01-30T05:06:09;18.30;;;9.82;;
9880;SDS011;4979;51.014;6.678;2024-01-30T05:08:35;11.55;;;8.98;;
9880;SDS011;4979;51.014;6.678;2024-01-30T05:11:05;14.82;;;9.50;;
9880;SDS011;4979;51.014;6.678;2024-01-30T05:13:31;15.38;;;9.45;;
9880;SDS011;4979;51.014;6.678;2024-01-30T05:15:57;12.50;;;9.00;;
9880;SDS011;4979;51.014;6.678;2024-01-30T05:18:22;16.35;;;9.10;;
9880;SDS011;4979;51.014;6.678;2024-01-30T05:20:49;18.20;;;9.75;;
9880;SDS011;4979;51.014;6.678;2024-01-30T05:23:15;14.00;;;8.93;;
9880;SDS011;4979;51.014;6.678;2024-01-30T05:25:41;11.50;;;8.10;;
9880;SDS011;4979;51.014;6.678;2024-01-30T05:28:06;16.05;;;8.95;;
9880;SDS011;4979;51.014;6.678;2024-01-30T05:30:32;12.82;;;8.10;;
9880;SDS011;4979;51.014;6.678;2024-01-30T05:32:57;12.60;;;8.77;;
9880;SDS011;4979;51.014;6.678;2024-01-30T05:35:23;12.43;;;9.02;;
9880;SDS011;4979;51.014;6.678;2024-01-30T05:37:49;14.43;;;9.02;;
9880;SDS011;4979;51.014;6.678;2024-01-30T05:40:15;13.35;;;8.48;;
9880;SDS011;4979;51.014;6.678;2024-01-30T05:42:41;12.30;;;8.50;;
9880;SDS011;4979;51.014;6.678;2024-01-30T05:45:07;13.90;;;8.20;;
9880;SDS011;4979;51.014;6.678;2024-01-30T05:47:33;11.88;;;8.35;;
9880;SDS011;4979;51.014;6.678;2024-01-30T05:49:59;12.93;;;8.07;;
9880;SDS011;4979;51.014;6.678;2024-01-30T05:52:25;14.93;;;7.80;;
9880;SDS011;4979;51.014;6.678;2024-01-30T05:54:50;12.05;;;7.70;;
9880;SDS011;4979;51.014;6.678;2024-01-30T05:57:16;11.60;;;8.35;;
9880;SDS011;4979;51.014;6.678;2024-01-30T05:59:42;9.52;;;7.50;;
9880;SDS011;4979;51.014;6.678;2024-01-30T06:02:09;12.93;;;9.05;;
9880;SDS011;4979;51.014;6.678;2024-01-30T06:04:35;11.75;;;8.10;;
9880;SDS011;4979;51.014;6.678;2024-01-30T06:07:01;15.70;;;8.18;;
9880;SDS011;4979;51.014;6.678;2024-01-30T06:09:27;13.48;;;7.72;;
9880;SDS011;4979;51.014;6.678;2024-01-30T06:11:53;12.35;;;8.57;;
9880;SDS011;4979;51.014;6.678;2024-01-30T06:14:19;13.57;;;8.43;;
9880;SDS011;4979;51.014;6.678;2024-01-30T06:16:44;15.85;;;8.35;;
9880;SDS011;4979;51.014;6.678;2024-01-30T06:19:10;18.00;;;9.32;;
9880;SDS011;4979;51.014;6.678;2024-01-30T06:21:36;12.18;;;7.53;;
9880;SDS011;4979;51.014;6.678;2024-01-30T06:24:03;17.10;;;8.02;;
9880;SDS011;4979;51.014;6.678;2024-01-30T06:26:29;12.70;;;8.43;;
9880;SDS011;4979;51.014;6.678;2024-01-30T06:28:54;15.93;;;9.15;;
9880;SDS011;4979;51.014;6.678;2024-01-30T06:31:20;13.70;;;8.02;;
9880;SDS011;4979;51.014;6.678;2024-01-30T06:33:49;12.95;;;8.75;;
9880;SDS011;4979;51.014;6.678;2024-01-30T06:36:14;17.63;;;9.60;;
9880;SDS011;4979;51.014;6.678;2024-01-30T06:38:40;11.45;;;8.38;;
9880;SDS011;4979;51.014;6.678;2024-01-30T06:41:06;13.50;;;8.60;;
9880;SDS011;4979;51.014;6.678;2024-01-30T06:43:31;11.65;;;7.80;;
9880;SDS011;4979;51.014;6.678;2024-01-30T06:45:57;16.33;;;8.35;;
9880;SDS011;4979;51.014;6.678;2024-01-30T06:48:23;15.77;;;8.07;;
9880;SDS011;4979;51.014;6.678;2024-01-30T06:50:48;9.73;;;7.25;;
9880;SDS011;4979;51.014;6.678;2024-01-30T06:53:14;16.75;;;8.23;;
9880;SDS011;4979;51.014;6.678;2024-01-30T06:55:40;16.60;;;8.20;;
9880;SDS011;4979;51.014;6.678;2024-01-30T06:58:05;11.13;;;7.88;;
9880;SDS011;4979;51.014;6.678;2024-01-30T07:00:31;17.52;;;8.60;;
9880;SDS011;4979;51.014;6.678;2024-01-30T07:02:57;12.98;;;9.05;;
9880;SDS011;4979;51.014;6.678;2024-01-30T07:05:22;12.50;;;8.35;;
9880;SDS011;4979;51.014;6.678;2024-01-30T07:07:48;16.58;;;9.05;;
9880;SDS011;4979;51.014;6.678;2024-01-30T07:10:13;10.88;;;8.63;;
9880;SDS011;4979;51.014;6.678;2024-01-30T07:12:39;17.20;;;9.30;;
9880;SDS011;4979;51.014;6.678;2024-01-30T07:15:05;14.65;;;9.55;;
9880;SDS011;4979;51.014;6.678;2024-01-30T07:17:33;14.40;;;9.13;;
9880;SDS011;4979;51.014;6.678;2024-01-30T07:19:59;14.07;;;9.27;;
9880;SDS011;4979;51.014;6.678;2024-01-30T07:22:25;19.05;;;9.57;;
9880;SDS011;4979;51.014;6.678;2024-01-30T07:24:50;17.67;;;9.07;;
9880;SDS011;4979;51.014;6.678;2024-01-30T07:27:17;11.23;;;8.75;;
9880;SDS011;4979;51.014;6.678;2024-01-30T07:29:43;14.88;;;8.57;;
9880;SDS011;4979;51.014;6.678;2024-01-30T07:32:08;13.30;;;8.70;;
9880;SDS011;4979;51.014;6.678;2024-01-30T07:34:34;13.57;;;8.90;;
9880;SDS011;4979;51.014;6.678;2024-01-30T07:37:01;13.18;;;9.48;;
9880;SDS011;4979;51.014;6.678;2024-01-30T07:39:27;14.95;;;9.70;;
9880;SDS011;4979;51.014;6.678;2024-01-30T07:41:53;17.90;;;8.90;;
9880;SDS011;4979;51.014;6.678;2024-01-30T07:44:19;16.80;;;9.40;;
9880;SDS011;4979;51.014;6.678;2024-01-30T07:46:45;15.93;;;9.13;;
9880;SDS011;4979;51.014;6.678;2024-01-30T07:49:10;12.48;;;8.68;;
9880;SDS011;4979;51.014;6.678;2024-01-30T07:51:36;16.35;;;9.10;;
9880;SDS011;4979;51.014;6.678;2024-01-30T07:54:01;11.63;;;8.65;;
9880;SDS011;4979;51.014;6.678;2024-01-30T07:56:27;16.42;;;8.90;;
9880;SDS011;4979;51.014;6.678;2024-01-30T07:58:53;14.52;;;9.05;;
9880;SDS011;4979;51.014;6.678;2024-01-30T08:01:18;13.75;;;9.38;;
9880;SDS011;4979;51.014;6.678;2024-01-30T08:03:44;18.50;;;9.13;;
9880;SDS011;4979;51.014;6.678;2024-01-30T08:06:09;15.82;;;9.73;;
9880;SDS011;4979;51.014;6.678;2024-01-30T08:08:35;12.35;;;8.80;;
9880;SDS011;4979;51.014;6.678;2024-01-30T08:11:02;14.38;;;9.13;;
9880;SDS011;4979;51.014;6.678;2024-01-30T08:13:28;16.98;;;8.65;;
9880;SDS011;4979;51.014;6.678;2024-01-30T08:15:54;13.95;;;8.88;;
9880;SDS011;4979;51.014;6.678;2024-01-30T08:18:19;12.73;;;8.35;;
9880;SDS011;4979;51.014;6.678;2024-01-30T08:20:45;13.52;;;8.95;;
9880;SDS011;4979;51.014;6.678;2024-01-30T08:23:10;11.45;;;8.20;;
9880;SDS011;4979;51.014;6.678;2024-01-30T08:25:36;11.82;;;8.32;;
9880;SDS011;4979;51.014;6.678;2024-01-30T08:28:01;15.88;;;9.38;;
9880;SDS011;4979;51.014;6.678;2024-01-30T08:30:28;11.07;;;8.90;;
9880;SDS011;4979;51.014;6.678;2024-01-30T08:32:53;11.25;;;8.27;;
9880;SDS011;4979;51.014;6.678;2024-01-30T08:35:19;16.13;;;8.20;;
9880;SDS011;4979;51.014;6.678;2024-01-30T08:37:44;12.90;;;8.32;;
9880;SDS011;4979;51.014;6.678;2024-01-30T08:40:10;12.70;;;7.63;;
9880;SDS011;4979;51.014;6.678;2024-01-30T08:42:35;10.57;;;7.72;;
9880;SDS011;4979;51.014;6.678;2024-01-30T08:45:01;14.68;;;8.20;;
9880;SDS011;4979;51.014;6.678;2024-01-30T08:47:27;11.00;;;7.93;;
9880;SDS011;4979;51.014;6.678;2024-01-30T08:49:52;15.00;;;9.00;;
9880;SDS011;4979;51.014;6.678;2024-01-30T08:52:18;16.80;;;8.88;;
9880;SDS011;4979;51.014;6.678;2024-01-30T08:54:43;12.85;;;8.60;;
9880;SDS011;4979;51.014;6.678;2024-01-30T08:57:09;11.40;;;8.73;;
9880;SDS011;4979;51.014;6.678;2024-01-30T08:59:35;13.43;;;8.88;;
9880;SDS011;4979;51.014;6.678;2024-01-30T09:02:00;11.80;;;7.85;;
9880;SDS011;4979;51.014;6.678;2024-01-30T09:04:26;17.80;;;9.43;;
9880;SDS011;4979;51.014;6.678;2024-01-30T09:06:51;13.10;;;8.75;;
9880;SDS011;4979;51.014;6.678;2024-01-30T09:09:17;10.93;;;8.00;;
9880;SDS011;4979;51.014;6.678;2024-01-30T09:11:43;13.15;;;8.13;;
9880;SDS011;4979;51.014;6.678;2024-01-30T09:14:08;12.30;;;8.38;;
9880;SDS011;4979;51.014;6.678;2024-01-30T09:16:34;10.02;;;8.05;;
9880;SDS011;4979;51.014;6.678;2024-01-30T09:19:00;12.18;;;8.23;;
9880;SDS011;4979;51.014;6.678;2024-01-30T09:21:25;12.02;;;7.85;;
9880;SDS011;4979;51.014;6.678;2024-01-30T09:23:54;15.15;;;8.52;;
9880;SDS011;4979;51.014;6.678;2024-01-30T09:26:20;12.77;;;7.50;;
9880;SDS011;4979;51.014;6.678;2024-01-30T09:28:45;12.68;;;8.07;;
9880;SDS011;4979;51.014;6.678;2024-01-30T09:31:11;12.23;;;7.65;;
9880;SDS011;4979;51.014;6.678;2024-01-30T09:33:37;11.88;;;9.00;;
9880;SDS011;4979;51.014;6.678;2024-01-30T09:36:04;13.00;;;8.13;;
9880;SDS011;4979;51.014;6.678;2024-01-30T09:38:30;11.50;;;8.77;;
9880;SDS011;4979;51.014;6.678;2024-01-30T09:40:56;13.93;;;8.98;;
9880;SDS011;4979;51.014;6.678;2024-01-30T09:43:26;10.93;;;8.05;;
9880;SDS011;4979;51.014;6.678;2024-01-30T09:45:58;28.80;;;9.40;;
9880;SDS011;4979;51.014;6.678;2024-01-30T09:48:24;17.63;;;11.43;;
9880;SDS011;4979;51.014;6.678;2024-01-30T09:50:52;27.67;;;17.02;;
9880;SDS011;4979;51.014;6.678;2024-01-30T09:53:18;16.15;;;10.95;;
9880;SDS011;4979;51.014;6.678;2024-01-30T09:55:45;24.65;;;16.00;;
9880;SDS011;4979;51.014;6.678;2024-01-30T09:58:12;19.70;;;13.98;;
9880;SDS011;4979;51.014;6.678;2024-01-30T10:00:38;12.30;;;9.07;;
9880;SDS011;4979;51.014;6.678;2024-01-30T10:03:03;20.55;;;15.02;;
9880;SDS011;4979;51.014;6.678;2024-01-30T10:05:29;18.30;;;9.88;;
9880;SDS011;4979;51.014;6.678;2024-01-30T10:07:58;12.50;;;9.95;;
9880;SDS011;4979;51.014;6.678;2024-01-30T10:10:24;34.22;;;26.20;;
9880;SDS011;4979;51.014;6.678;2024-01-30T10:12:50;17.52;;;11.27;;
9880;SDS011;4979;51.014;6.678;2024-01-30T10:15:17;22.30;;;13.85;;
9880;SDS011;4979;51.014;6.678;2024-01-30T10:17:44;14.43;;;10.18;;
9880;SDS011;4979;51.014;6.678;2024-01-30T10:20:10;11.93;;;8.80;;
9880;SDS011;4979;51.014;6.678;2024-01-30T10:22:36;12.27;;;8.73;;
9880;SDS011;4979;51.014;6.678;2024-01-30T10:25:02;14.95;;;9.43;;
9880;SDS011;4979;51.014;6.678;2024-01-30T10:27:28;14.02;;;9.75;;
9880;SDS011;4979;51.014;6.678;2024-01-30T10:29:54;11.82;;;8.75;;
9880;SDS011;4979;51.014;6.678;2024-01-30T10:32:20;14.20;;;9.63;;
9880;SDS011;4979;51.014;6.678;2024-01-30T10:34:46;15.02;;;8.50;;
9880;SDS011;4979;51.014;6.678;2024-01-30T10:37:12;14.25;;;8.68;;
9880;SDS011;4979;51.014;6.678;2024-01-30T10:39:41;14.98;;;9.30;;
9880;SDS011;4979;51.014;6.678;2024-01-30T10:42:11;13.32;;;10.18;;
9880;SDS011;4979;51.014;6.678;2024-01-30T10:44:56;23.33;;;11.32;;
9880;SDS011;4979;51.014;6.678;2024-01-30T10:47:30;17.88;;;11.00;;
9880;SDS011;4979;51.014;6.678;2024-01-30T10:49:58;15.77;;;11.00;;
9880;SDS011;4979;51.014;6.678;2024-01-30T10:52:25;12.18;;;9.40;;
9880;SDS011;4979;51.014;6.678;2024-01-30T10:54:51;24.65;;;13.55;;
9880;SDS011;4979;51.014;6.678;2024-01-30T10:57:17;16.10;;;11.95;;
9880;SDS011;4979;51.014;6.678;2024-01-30T10:59:43;12.82;;;10.75;;
9880;SDS011;4979;51.014;6.678;2024-01-30T11:02:10;15.88;;;9.82;;
9880;SDS011;4979;51.014;6.678;2024-01-30T11:04:36;15.00;;;9.63;;
9880;SDS011;4979;51.014;6.678;2024-01-30T11:07:02;14.95;;;9.07;;
9880;SDS011;4979;51.014;6.678;2024-01-30T11:09:39;16.73;;;9.60;;
9880;SDS011;4979;51.014;6.678;2024-01-30T11:12:11;12.40;;;9.07;;
9880;SDS011;4979;51.014;6.678;2024-01-30T11:14:37;12.98;;;8.63;;
9880;SDS011;4979;51.014;6.678;2024-01-30T11:17:05;20.40;;;9.75;;
9880;SDS011;4979;51.014;6.678;2024-01-30T11:19:31;10.43;;;8.60;;
9880;SDS011;4979;51.014;6.678;2024-01-30T11:21:57;11.55;;;8.90;;
9880;SDS011;4979;51.014;6.678;2024-01-30T11:24:23;14.80;;;8.75;;
9880;SDS011;4979;51.014;6.678;2024-01-30T11:26:49;12.20;;;8.27;;
9880;SDS011;4979;51.014;6.678;2024-01-30T11:29:20;13.30;;;8.30;;
9880;SDS011;4979;51.014;6.678;2024-01-30T11:31:53;14.23;;;9.15;;
9880;SDS011;4979;51.014;6.678;2024-01-30T11:34:19;14.23;;;7.97;;
9880;SDS011;4979;51.014;6.678;2024-01-30T11:36:48;13.90;;;7.70;;
9880;SDS011;4979;51.014;6.678;2024-01-30T11:39:36;12.80;;;8.55;;
9880;SDS011;4979;51.014;6.678;2024-01-30T11:42:03;16.05;;;9.20;;
9880;SDS011;4979;51.014;6.678;2024-01-30T11:44:30;18.17;;;8.70;;
9880;SDS011;4979;51.014;6.678;2024-01-30T11:46:56;12.02;;;6.80;;
9880;SDS011;4979;51.014;6.678;2024-01-30T11:49:21;14.50;;;6.72;;
9880;SDS011;4979;51.014;6.678;2024-01-30T11:51:48;12.25;;;5.88;;
9880;SDS011;4979;51.014;6.678;2024-01-30T11:54:15;10.95;;;6.88;;
9880;SDS011;4979;51.014;6.678;2024-01-30T11:56:41;12.57;;;6.45;;
9880;SDS011;4979;51.014;6.678;2024-01-30T11:59:07;12.43;;;5.53;;
9880;SDS011;4979;51.014;6.678;2024-01-30T12:01:33;16.33;;;6.43;;
9880;SDS011;4979;51.014;6.678;2024-01-30T12:03:59;10.55;;;5.07;;
9880;SDS011;4979;51.014;6.678;2024-01-30T12:06:24;9.77;;;5.30;;
9880;SDS011;4979;51.014;6.678;2024-01-30T12:08:59;11.73;;;5.20;;
9880;SDS011;4979;51.014;6.678;2024-01-30T12:11:29;11.52;;;5.10;;
9880;SDS011;4979;51.014;6.678;2024-01-30T12:13:55;12.90;;;5.97;;
9880;SDS011;4979;51.014;6.678;2024-01-30T12:16:21;9.52;;;5.07;;
9880;SDS011;4979;51.014;6.678;2024-01-30T12:18:47;8.23;;;4.10;;
9880;SDS011;4979;51.014;6.678;2024-01-30T12:21:15;9.73;;;5.28;;
9880;SDS011;4979;51.014;6.678;2024-01-30T12:23:41;11.57;;;5.55;;
9880;SDS011;4979;51.014;6.678;2024-01-30T12:26:07;11.10;;;5.68;;
9880;SDS011;4979;51.014;6.678;2024-01-30T12:28:33;11.95;;;6.22;;
9880;SDS011;4979;51.014;6.678;2024-01-30T12:31:05;9.00;;;5.30;;
9880;SDS011;4979;51.014;6.678;2024-01-30T12:33:30;7.55;;;5.22;;
9880;SDS011;4979;51.014;6.678;2024-01-30T12:35:56;7.80;;;5.35;;
9880;SDS011;4979;51.014;6.678;2024-01-30T12:38:26;8.52;;;4.75;;
9880;SDS011;4979;51.014;6.678;2024-01-30T12:40:55;8.73;;;5.90;;
9880;SDS011;4979;51.014;6.678;2024-01-30T12:43:21;13.98;;;5.20;;
9880;SDS011;4979;51.014;6.678;2024-01-30T12:45:47;8.73;;;5.22;;
9880;SDS011;4979;51.014;6.678;2024-01-30T12:48:13;7.32;;;4.35;;
9880;SDS011;4979;51.014;6.678;2024-01-30T12:50:39;7.85;;;5.15;;
9880;SDS011;4979;51.014;6.678;2024-01-30T12:53:04;14.45;;;5.53;;
9880;SDS011;4979;51.014;6.678;2024-01-30T12:55:31;7.68;;;5.07;;
9880;SDS011;4979;51.014;6.678;2024-01-30T12:57:56;9.07;;;4.95;;
9880;SDS011;4979;51.014;6.678;2024-01-30T13:00:22;9.20;;;4.78;;
9880;SDS011;4979;51.014;6.678;2024-01-30T13:02:47;8.98;;;4.57;;
9880;SDS011;4979;51.014;6.678;2024-01-30T13:05:13;7.13;;;4.32;;
9880;SDS011;4979;51.014;6.678;2024-01-30T13:07:38;10.30;;;5.40;;
9880;SDS011;4979;51.014;6.678;2024-01-30T13:10:04;9.68;;;4.68;;
9880;SDS011;4979;51.014;6.678;2024-01-30T13:12:31;8.27;;;5.53;;
9880;SDS011;4979;51.014;6.678;2024-01-30T13:15:00;9.73;;;4.90;;
9880;SDS011;4979;51.014;6.678;2024-01-30T13:17:26;14.57;;;8.80;;
9880;SDS011;4979;51.014;6.678;2024-01-30T13:19:52;14.90;;;7.55;;
9880;SDS011;4979;51.014;6.678;2024-01-30T13:22:19;12.52;;;6.90;;
9880;SDS011;4979;51.014;6.678;2024-01-30T13:24:46;7.85;;;5.80;;
9880;SDS011;4979;51.014;6.678;2024-01-30T13:27:12;10.15;;;5.80;;
9880;SDS011;4979;51.014;6.678;2024-01-30T13:29:38;10.55;;;6.35;;
9880;SDS011;4979;51.014;6.678;2024-01-30T13:32:03;10.98;;;5.75;;
9880;SDS011;4979;51.014;6.678;2024-01-30T13:34:29;11.00;;;5.78;;
9880;SDS011;4979;51.014;6.678;2024-01-30T13:36:55;9.85;;;5.68;;
9880;SDS011;4979;51.014;6.678;2024-01-30T13:39:20;15.18;;;7.32;;
9880;SDS011;4979;51.014;6.678;2024-01-30T13:41:46;10.43;;;5.85;;
9880;SDS011;4979;51.014;6.678;2024-01-30T13:44:13;12.48;;;6.90;;
9880;SDS011;4979;51.014;6.678;2024-01-30T13:46:41;10.65;;;6.00;;
9880;SDS011;4979;51.014;6.678;2024-01-30T13:49:07;10.82;;;6.25;;
9880;SDS011;4979;51.014;6.678;2024-01-30T13:51:32;10.32;;;6.47;;
9880;SDS011;4979;51.014;6.678;2024-01-30T13:53:58;10.10;;;6.60;;
9880;SDS011;4979;51.014;6.678;2024-01-30T13:56:23;9.55;;;6.43;;
9880;SDS011;4979;51.014;6.678;2024-01-30T13:58:50;10.90;;;6.45;;
9880;SDS011;4979;51.014;6.678;2024-01-30T14:01:16;11.45;;;5.88;;
9880;SDS011;4979;51.014;6.678;2024-01-30T14:03:42;9.88;;;5.93;;
9880;SDS011;4979;51.014;6.678;2024-01-30T14:06:07;8.95;;;6.20;;
9880;SDS011;4979;51.014;6.678;2024-01-30T14:08:33;12.68;;;6.65;;
9880;SDS011;4979;51.014;6.678;2024-01-30T14:10:59;12.60;;;6.82;;
9880;SDS011;4979;51.014;6.678;2024-01-30T14:13:24;10.52;;;7.18;;
9880;SDS011;4979;51.014;6.678;2024-01-30T14:15:50;10.15;;;6.20;;
9880;SDS011;4979;51.014;6.678;2024-01-30T14:18:17;7.97;;;6.15;;
9880;SDS011;4979;51.014;6.678;2024-01-30T14:20:43;9.25;;;6.25;;
9880;SDS011;4979;51.014;6.678;2024-01-30T14:23:08;8.85;;;5.65;;
9880;SDS011;4979;51.014;6.678;2024-01-30T14:25:34;13.77;;;7.07;;
9880;SDS011;4979;51.014;6.678;2024-01-30T14:28:00;14.98;;;6.22;;
9880;SDS011;4979;51.014;6.678;2024-01-30T14:30:25;14.80;;;7.10;;
9880;SDS011;4979;51.014;6.678;2024-01-30T14:32:51;8.65;;;6.57;;
9880;SDS011;4979;51.014;6.678;2024-01-30T14:35:16;9.73;;;7.07;;
9880;SDS011;4979;51.014;6.678;2024-01-30T14:37:42;16.20;;;7.70;;
9880;SDS011;4979;51.014;6.678;2024-01-30T14:40:08;9.88;;;6.70;;
9880;SDS011;4979;51.014;6.678;2024-01-30T14:42:34;9.43;;;6.55;;
9880;SDS011;4979;51.014;6.678;2024-01-30T14:45:01;18.20;;;8.00;;
9880;SDS011;4979;51.014;6.678;2024-01-30T14:47:26;15.85;;;7.80;;
9880;SDS011;4979;51.014;6.678;2024-01-30T14:49:52;12.80;;;6.55;;
9880;SDS011;4979;51.014;6.678;2024-01-30T14:52:18;10.90;;;7.25;;